Time;durP1;ratioP1;P1;durP2;ratioP2;P2;SDS_P1;SDS_P2;PMS_P1;PMS_P2;Temp;Humidity;BMP_temperature;BMP_pressure;BME280_temperature;BME280_humidity;BME280_pressure;Samples;Min_cycle;Max_cycle;Signal;HPM_P1;HPM_P2
2022/05/15 00:01:53;;;;;;;20.90;9.73;;;;;;;;;;4947869;29;20029;-67
2022/05/15 00:04:21;;;;;;;24.67;9.00;;;;;;;;;;4944683;28;20019;-66
2022/05/15 00:06:46;;;;;;;16.80;8.27;;;;;;;;;;4961639;28;20028;-67
2022/05/15 00:09:11;;;;;;;20.95;8.82;;;;;;;;;;4948149;28;20073;-66
2022/05/15 00:11:37;;;;;;;20.70;8.55;;;;;;;;;;4947242;28;20541;-66
2022/05/15 00:14:02;;;;;;;21.55;8.88;;;;;;;;;;4942173;28;20524;-66
2022/05/15 00:16:28;;;;;;;21.40;9.40;;;;;;;;;;4946838;28;20442;-67
2022/05/15 00:18:53;;;;;;;20.35;9.13;;;;;;;;;;4957610;28;20078;-66
2022/05/15 00:21:22;;;;;;;18.08;9.13;;;;;;;;;;4947551;28;20445;-65
2022/05/15 00:23:47;;;;;;;21.20;9.25;;;;;;;;;;4944380;28;20110;-66
2022/05/15 00:26:12;;;;;;;19.67;9.55;;;;;;;;;;4946717;28;20433;-66
2022/05/15 00:28:38;;;;;;;28.00;8.88;;;;;;;;;;4940020;28;20918;-66
2022/05/15 00:31:03;;;;;;;24.45;9.45;;;;;;;;;;4945450;28;20027;-68
2022/05/15 00:33:28;;;;;;;22.75;9.00;;;;;;;;;;4945399;28;20031;-66
2022/05/15 00:35:54;;;;;;;22.80;9.73;;;;;;;;;;4943684;28;20027;-67
2022/05/15 00:38:20;;;;;;;29.63;10.02;;;;;;;;;;4946667;28;20493;-66
2022/05/15 00:40:46;;;;;;;25.00;9.55;;;;;;;;;;4927112;29;20091;-67
2022/05/15 00:43:13;;;;;;;24.35;8.95;;;;;;;;;;4941063;28;20114;-66
2022/05/15 00:45:38;;;;;;;24.42;10.27;;;;;;;;;;4946523;28;20019;-67
2022/05/15 00:48:04;;;;;;;18.75;9.57;;;;;;;;;;4929270;29;20102;-66
2022/05/15 00:50:31;;;;;;;23.83;9.65;;;;;;;;;;4943365;28;20027;-66
2022/05/15 00:52:58;;;;;;;20.10;8.82;;;;;;;;;;4945272;28;20466;-66
2022/05/15 00:55:36;;;;;;;20.25;8.52;;;;;;;;;;4945954;28;20371;-67
2022/05/15 00:58:08;;;;;;;23.88;9.05;;;;;;;;;;4941134;28;20137;-66
2022/05/15 01:00:33;;;;;;;19.98;9.20;;;;;;;;;;4928565;29;20102;-67
2022/05/15 01:03:06;;;;;;;26.90;9.68;;;;;;;;;;4947148;28;20550;-65
2022/05/15 01:05:31;;;;;;;;;;;;;;;;;;4943140;29;20020;-66
2022/05/15 01:07:57;;;;;;;23.60;9.23;;;;;;;;;;4960490;28;19911;-68
2022/05/15 01:10:22;;;;;;;20.73;9.48;;;;;;;;;;4947847;28;20031;-66
2022/05/15 01:12:48;;;;;;;23.33;8.95;;;;;;;;;;4945870;28;20030;-66
2022/05/15 01:15:18;;;;;;;25.23;9.23;;;;;;;;;;4949868;28;20034;-67
2022/05/15 01:17:44;;;;;;;22.15;8.60;;;;;;;;;;4949238;28;20027;-66
2022/05/15 01:20:14;;;;;;;25.75;8.63;;;;;;;;;;4946655;28;20359;-67
2022/05/15 01:22:40;;;;;;;21.90;8.77;;;;;;;;;;4949318;28;20038;-67
2022/05/15 01:25:14;;;;;;;30.52;8.73;;;;;;;;;;4948470;28;20031;-67
2022/05/15 01:27:42;;;;;;;25.35;8.63;;;;;;;;;;4945570;29;20027;-67
2022/05/15 01:30:08;;;;;;;26.52;8.98;;;;;;;;;;4928661;29;20117;-66
2022/05/15 01:32:34;;;;;;;17.98;8.00;;;;;;;;;;4949264;28;20439;-66
2022/05/15 01:34:59;;;;;;;23.17;7.55;;;;;;;;;;4961880;28;20031;-66
2022/05/15 01:37:25;;;;;;;24.90;7.78;;;;;;;;;;4933185;29;20034;-64
2022/05/15 01:39:51;;;;;;;24.08;7.97;;;;;;;;;;4948620;28;20031;-66
2022/05/15 01:42:16;;;;;;;20.42;7.40;;;;;;;;;;4948377;28;20518;-66
2022/05/15 01:44:41;;;;;;;26.45;8.73;;;;;;;;;;4946830;28;20336;-66
2022/05/15 01:47:07;;;;;;;19.17;7.55;;;;;;;;;;4950507;28;20110;-68
2022/05/15 01:49:32;;;;;;;26.10;8.80;;;;;;;;;;4946287;28;20039;-66
2022/05/15 01:51:58;;;;;;;31.42;8.10;;;;;;;;;;4949978;28;20118;-66
2022/05/15 01:54:23;;;;;;;26.38;8.18;;;;;;;;;;4947647;28;20091;-67
2022/05/15 01:56:49;;;;;;;24.30;7.47;;;;;;;;;;4949386;28;20027;-66
2022/05/15 01:59:14;;;;;;;22.83;8.25;;;;;;;;;;4945227;28;20023;-67
2022/05/15 02:01:40;;;;;;;21.65;7.35;;;;;;;;;;4947538;28;20058;-67
2022/05/15 02:04:07;;;;;;;22.80;8.13;;;;;;;;;;4945800;28;20110;-67
2022/05/15 02:06:33;;;;;;;23.05;7.32;;;;;;;;;;4950455;28;20043;-65
2022/05/15 02:08:58;;;;;;;29.10;7.88;;;;;;;;;;4947984;28;20538;-67
2022/05/15 02:11:23;;;;;;;24.75;7.85;;;;;;;;;;4949049;29;20023;-66
2022/05/15 02:13:48;;;;;;;29.23;7.38;;;;;;;;;;4944246;28;20038;-67
2022/05/15 02:16:14;;;;;;;26.13;7.88;;;;;;;;;;4948170;28;20059;-66
2022/05/15 02:18:40;;;;;;;19.50;7.28;;;;;;;;;;4946581;28;20034;-66
2022/05/15 02:21:06;;;;;;;22.77;7.32;;;;;;;;;;4930000;29;20035;-67
2022/05/15 02:23:32;;;;;;;21.25;7.32;;;;;;;;;;4948650;28;20447;-66
2022/05/15 02:25:58;;;;;;;27.75;7.57;;;;;;;;;;4948018;29;20038;-66
2022/05/15 02:28:23;;;;;;;24.13;7.50;;;;;;;;;;4945534;28;20030;-66
2022/05/15 02:30:49;;;;;;;19.83;6.90;;;;;;;;;;4948339;28;20023;-66
2022/05/15 02:33:14;;;;;;;24.50;7.78;;;;;;;;;;4949040;28;20058;-66
2022/05/15 02:35:39;;;;;;;23.13;8.13;;;;;;;;;;4944411;28;21036;-66
2022/05/15 02:38:05;;;;;;;19.02;7.45;;;;;;;;;;4948475;28;20035;-65
2022/05/15 02:40:31;;;;;;;22.63;7.60;;;;;;;;;;4947829;28;20118;-67
2022/05/15 02:42:56;;;;;;;25.95;8.07;;;;;;;;;;4943459;28;20023;-67
2022/05/15 02:45:22;;;;;;;23.80;7.60;;;;;;;;;;4948254;28;20387;-65
2022/05/15 02:47:47;;;;;;;24.83;7.38;;;;;;;;;;4947520;28;20131;-66
2022/05/15 02:52:57;;;;;;;23.73;7.30;;;;;;;;;;4948072;28;20065;-67
2022/05/15 02:55:23;;;;;;;21.15;7.32;;;;;;;;;;4948842;28;20015;-67
2022/05/15 02:57:52;;;;;;;21.10;6.97;;;;;;;;;;4941828;28;20439;-67
2022/05/15 03:00:18;;;;;;;23.40;7.15;;;;;;;;;;4947690;28;20027;-66
2022/05/15 03:02:43;;;;;;;26.30;7.15;;;;;;;;;;4947576;28;20078;-66
2022/05/15 03:05:09;;;;;;;23.90;8.00;;;;;;;;;;4946210;28;20051;-66
2022/05/15 03:07:36;;;;;;;28.05;7.70;;;;;;;;;;4948751;28;20183;-68
2022/05/15 03:10:02;;;;;;;22.60;8.00;;;;;;;;;;4946853;28;20026;-66
2022/05/15 03:12:27;;;;;;;22.35;6.28;;;;;;;;;;4944945;28;20027;-67
2022/05/15 03:14:53;;;;;;;18.80;7.20;;;;;;;;;;4944495;28;20031;-66
2022/05/15 03:17:19;;;;;;;25.63;7.38;;;;;;;;;;4948678;28;20027;-67
2022/05/15 03:19:44;;;;;;;26.38;7.20;;;;;;;;;;4945402;28;20034;-65
2022/05/15 03:22:10;;;;;;;21.63;7.43;;;;;;;;;;4948748;28;20459;-66
2022/05/15 03:24:35;;;;;;;30.20;8.25;;;;;;;;;;4963183;28;20035;-66
2022/05/15 03:27:06;;;;;;;24.58;7.78;;;;;;;;;;4944733;29;20505;-66
2022/05/15 03:29:31;;;;;;;20.77;6.68;;;;;;;;;;4945896;28;20514;-67
2022/05/15 03:31:57;;;;;;;20.52;6.82;;;;;;;;;;4942223;28;20158;-67
2022/05/15 03:34:22;;;;;;;23.85;7.85;;;;;;;;;;4927584;29;20506;-66
2022/05/15 03:36:51;;;;;;;20.77;7.05;;;;;;;;;;4948786;28;20110;-66
2022/05/15 03:39:16;;;;;;;23.98;6.95;;;;;;;;;;4948075;28;20059;-68
2022/05/15 03:41:42;;;;;;;23.17;7.40;;;;;;;;;;4947024;28;20509;-66
2022/05/15 03:44:08;;;;;;;22.13;6.82;;;;;;;;;;4941814;28;20027;-67
2022/05/15 03:46:33;;;;;;;22.75;7.63;;;;;;;;;;4948147;28;20027;-67
2022/05/15 03:48:58;;;;;;;27.00;7.93;;;;;;;;;;4942983;29;20526;-67
2022/05/15 03:51:23;;;;;;;24.50;7.70;;;;;;;;;;4947388;28;20033;-67
2022/05/15 03:53:49;;;;;;;22.02;6.93;;;;;;;;;;4946113;28;20051;-67
2022/05/15 03:56:14;;;;;;;25.50;6.90;;;;;;;;;;4947117;28;20406;-66
2022/05/15 03:58:40;;;;;;;24.92;7.22;;;;;;;;;;4924349;29;20118;-65
2022/05/15 04:01:06;;;;;;;23.35;7.65;;;;;;;;;;4946286;28;20466;-67
2022/05/15 04:03:32;;;;;;;28.67;7.35;;;;;;;;;;4947890;28;20086;-67
2022/05/15 04:05:57;;;;;;;24.27;7.55;;;;;;;;;;4944324;28;20027;-66
2022/05/15 04:08:23;;;;;;;25.35;7.28;;;;;;;;;;4947102;28;20101;-67
2022/05/15 04:10:48;;;;;;;22.60;6.65;;;;;;;;;;4947058;28;20023;-67
2022/05/15 04:13:13;;;;;;;21.92;6.40;;;;;;;;;;4942562;28;20348;-66
2022/05/15 04:15:38;;;;;;;23.15;7.25;;;;;;;;;;4946794;28;20031;-67
2022/05/15 04:18:05;;;;;;;25.60;6.65;;;;;;;;;;4945289;28;20035;-67
2022/05/15 04:20:31;;;;;;;21.85;6.80;;;;;;;;;;4945016;28;20023;-67
2022/05/15 04:22:56;;;;;;;21.20;6.32;;;;;;;;;;4945917;28;20545;-66
2022/05/15 04:25:22;;;;;;;29.05;7.72;;;;;;;;;;4946137;28;20023;-65
2022/05/15 04:27:48;;;;;;;25.10;6.55;;;;;;;;;;4957881;28;20490;-66
2022/05/15 04:30:15;;;;;;;23.58;6.95;;;;;;;;;;4945854;28;20019;-67
2022/05/15 04:32:44;;;;;;;23.65;6.63;;;;;;;;;;4947302;28;20494;-66
2022/05/15 04:35:10;;;;;;;21.02;6.75;;;;;;;;;;4943188;28;20194;-66
2022/05/15 04:37:36;;;;;;;24.45;6.82;;;;;;;;;;4947270;28;20109;-68
2022/05/15 04:40:02;;;;;;;19.40;6.53;;;;;;;;;;4944150;28;20034;-67
2022/05/15 04:42:27;;;;;;;20.23;6.70;;;;;;;;;;4945454;28;20422;-66
2022/05/15 04:44:52;;;;;;;24.10;6.55;;;;;;;;;;4942848;28;20046;-67
2022/05/15 04:47:18;;;;;;;23.58;6.32;;;;;;;;;;4961622;28;20121;-66
2022/05/15 04:49:43;;;;;;;22.75;6.47;;;;;;;;;;4944925;28;20506;-65
2022/05/15 04:52:09;;;;;;;25.83;7.20;;;;;;;;;;4945315;28;20398;-67
2022/05/15 04:54:35;;;;;;;29.02;7.32;;;;;;;;;;4947163;28;20426;-67
2022/05/15 04:57:01;;;;;;;23.80;7.18;;;;;;;;;;4944003;28;20031;-66
2022/05/15 04:59:26;;;;;;;24.77;7.20;;;;;;;;;;4942812;28;20031;-66
2022/05/15 05:01:51;;;;;;;23.67;7.07;;;;;;;;;;4960291;28;20126;-66
2022/05/15 05:04:17;;;;;;;23.42;7.57;;;;;;;;;;4942496;28;20043;-67
2022/05/15 05:06:42;;;;;;;21.90;6.20;;;;;;;;;;4945853;28;20082;-67
2022/05/15 05:09:07;;;;;;;25.08;7.03;;;;;;;;;;4945328;28;20196;-67
2022/05/15 05:11:32;;;;;;;19.40;6.75;;;;;;;;;;4947832;29;20036;-66
2022/05/15 05:13:58;;;;;;;20.92;6.57;;;;;;;;;;4941132;28;20027;-66
2022/05/15 05:16:23;;;;;;;23.38;6.72;;;;;;;;;;4946225;28;20129;-66
2022/05/15 05:18:49;;;;;;;24.83;7.45;;;;;;;;;;4943707;28;20031;-67
2022/05/15 05:21:14;;;;;;;22.30;7.53;;;;;;;;;;4946227;28;20082;-67
2022/05/15 05:23:39;;;;;;;19.65;6.68;;;;;;;;;;4945986;28;20394;-66
2022/05/15 05:26:05;;;;;;;30.15;7.35;;;;;;;;;;4945404;28;20031;-67
2022/05/15 05:28:30;;;;;;;19.67;6.43;;;;;;;;;;4942145;28;20027;-66
2022/05/15 05:30:56;;;;;;;19.48;7.00;;;;;;;;;;4946065;28;20070;-67
2022/05/15 05:33:21;;;;;;;18.17;6.05;;;;;;;;;;4945714;28;20057;-67
2022/05/15 05:35:47;;;;;;;23.27;6.53;;;;;;;;;;4943721;28;20158;-69
2022/05/15 05:38:12;;;;;;;22.27;6.80;;;;;;;;;;4945172;28;20462;-66
2022/05/15 05:40:37;;;;;;;15.75;6.13;;;;;;;;;;4945907;28;20426;-67
2022/05/15 05:43:02;;;;;;;23.38;6.25;;;;;;;;;;4938706;29;20579;-66
2022/05/15 05:45:28;;;;;;;32.40;8.18;;;;;;;;;;4947130;28;20015;-66
2022/05/15 05:47:55;;;;;;;16.88;5.97;;;;;;;;;;4944563;28;20023;-67
2022/05/15 05:50:22;;;;;;;19.40;6.43;;;;;;;;;;4944738;28;20081;-67
2022/05/15 05:52:47;;;;;;;21.85;6.78;;;;;;;;;;4945268;28;20482;-67
2022/05/15 05:55:13;;;;;;;22.42;6.00;;;;;;;;;;4945453;28;20034;-66
2022/05/15 05:57:40;;;;;;;26.30;7.10;;;;;;;;;;4945877;28;20093;-65
2022/05/15 06:00:06;;;;;;;18.45;6.40;;;;;;;;;;4946654;28;20448;-66
2022/05/15 06:02:32;;;;;;;25.33;7.07;;;;;;;;;;4949060;28;20027;-66
2022/05/15 06:04:57;;;;;;;17.95;6.47;;;;;;;;;;4946584;28;20486;-65
2022/05/15 06:07:24;;;;;;;19.60;6.43;;;;;;;;;;4950188;28;20455;-67
2022/05/15 06:09:50;;;;;;;20.42;6.45;;;;;;;;;;4949675;28;20104;-67
2022/05/15 06:12:16;;;;;;;19.45;6.30;;;;;;;;;;4946493;28;20457;-66
2022/05/15 06:14:42;;;;;;;21.67;6.75;;;;;;;;;;4948599;28;20023;-66
2022/05/15 06:17:07;;;;;;;20.08;5.55;;;;;;;;;;4949639;28;20093;-66
2022/05/15 06:19:33;;;;;;;23.77;6.75;;;;;;;;;;4946373;28;20463;-66
2022/05/15 06:21:59;;;;;;;20.65;5.72;;;;;;;;;;4947522;28;20042;-66
2022/05/15 06:24:25;;;;;;;22.58;6.85;;;;;;;;;;4963386;28;20110;-66
2022/05/15 06:26:51;;;;;;;17.42;7.07;;;;;;;;;;4950534;28;20026;-67
2022/05/15 06:29:16;;;;;;;20.00;6.93;;;;;;;;;;4943099;28;20050;-65
2022/05/15 06:31:41;;;;;;;20.08;6.95;;;;;;;;;;4949574;28;20454;-67
2022/05/15 06:34:06;;;;;;;23.42;7.80;;;;;;;;;;4946284;28;20051;-66
2022/05/15 06:36:32;;;;;;;18.75;6.55;;;;;;;;;;4949482;28;20024;-67
2022/05/15 06:38:57;;;;;;;17.20;6.53;;;;;;;;;;4947198;28;20027;-66
2022/05/15 06:41:23;;;;;;;22.02;7.10;;;;;;;;;;4948363;28;20482;-67
2022/05/15 06:43:48;;;;;;;22.42;7.20;;;;;;;;;;4944104;28;20479;-66
2022/05/15 06:46:14;;;;;;;24.83;6.82;;;;;;;;;;4948640;28;20358;-66
2022/05/15 06:48:41;;;;;;;21.38;6.55;;;;;;;;;;4946335;29;20082;-66
2022/05/15 06:51:07;;;;;;;20.23;6.18;;;;;;;;;;4946626;28;20359;-66
2022/05/15 06:53:33;;;;;;;18.00;6.35;;;;;;;;;;4947388;28;20047;-66
2022/05/15 06:58:42;;;;;;;24.85;6.65;;;;;;;;;;4944286;29;20733;-66
2022/05/15 07:01:07;;;;;;;24.95;7.57;;;;;;;;;;4962061;28;20031;-66
2022/05/15 07:03:33;;;;;;;22.55;7.18;;;;;;;;;;4947143;28;20030;-65
2022/05/15 07:05:58;;;;;;;23.15;6.55;;;;;;;;;;4944567;28;20573;-67
2022/05/15 07:08:24;;;;;;;22.20;7.13;;;;;;;;;;4962186;28;20027;-66
2022/05/15 07:10:49;;;;;;;19.20;6.75;;;;;;;;;;4947212;28;20031;-66
2022/05/15 07:13:14;;;;;;;24.55;8.05;;;;;;;;;;4946873;28;20094;-66
2022/05/15 07:15:40;;;;;;;22.17;7.38;;;;;;;;;;4949035;28;20340;-67
2022/05/15 07:18:06;;;;;;;18.75;7.03;;;;;;;;;;4947221;28;20086;-67
2022/05/15 07:20:31;;;;;;;25.83;7.47;;;;;;;;;;4946263;28;20451;-66
2022/05/15 07:22:57;;;;;;;20.55;7.25;;;;;;;;;;4948541;28;20110;-66
2022/05/15 07:25:23;;;;;;;19.08;6.93;;;;;;;;;;4931040;29;20019;-66
2022/05/15 07:27:49;;;;;;;17.40;6.28;;;;;;;;;;4944950;28;20448;-64
2022/05/15 07:30:14;;;;;;;21.35;6.95;;;;;;;;;;4947411;28;20050;-65
2022/05/15 07:32:40;;;;;;;26.55;7.43;;;;;;;;;;4946804;28;20391;-67
2022/05/15 07:35:06;;;;;;;22.10;7.95;;;;;;;;;;4943257;28;20114;-66
2022/05/15 07:37:31;;;;;;;20.25;7.00;;;;;;;;;;4948868;28;20515;-66
2022/05/15 07:39:56;;;;;;;24.17;7.85;;;;;;;;;;4948681;28;20023;-67
2022/05/15 07:42:21;;;;;;;21.55;6.80;;;;;;;;;;4946632;28;20340;-65
2022/05/15 07:44:47;;;;;;;19.60;7.68;;;;;;;;;;4945645;28;20102;-67
2022/05/15 07:47:12;;;;;;;18.85;6.63;;;;;;;;;;4948519;28;20486;-67
2022/05/15 07:49:37;;;;;;;24.23;7.40;;;;;;;;;;4944849;28;20054;-67
2022/05/15 07:52:03;;;;;;;22.27;7.13;;;;;;;;;;4944001;28;20075;-66
2022/05/15 07:54:29;;;;;;;19.75;7.30;;;;;;;;;;4928878;29;20060;-65
2022/05/15 07:56:54;;;;;;;23.08;7.90;;;;;;;;;;4946826;28;20439;-66
2022/05/15 07:59:19;;;;;;;21.10;8.02;;;;;;;;;;4942132;28;20027;-66
2022/05/15 08:01:45;;;;;;;20.88;6.97;;;;;;;;;;4948146;28;20478;-67
2022/05/15 08:04:10;;;;;;;15.85;6.65;;;;;;;;;;4943307;28;20027;-66
2022/05/15 08:09:20;;;;;;;17.55;7.10;;;;;;;;;;4945066;29;20057;-67
2022/05/15 08:11:45;;;;;;;21.45;7.75;;;;;;;;;;4948014;28;20062;-66
2022/05/15 08:14:10;;;;;;;19.63;7.10;;;;;;;;;;4943403;28;20117;-66
2022/05/15 08:16:36;;;;;;;16.73;6.95;;;;;;;;;;4947801;28;20716;-65
2022/05/15 08:24:33;;;;;;;18.65;7.80;;;;;;;;;;4947799;29;20034;-66
2022/05/15 08:26:59;;;;;;;21.05;8.13;;;;;;;;;;4946596;28;20027;-66
2022/05/15 08:29:24;;;;;;;20.35;7.38;;;;;;;;;;4941026;28;20384;-66
2022/05/15 08:31:50;;;;;;;21.05;8.00;;;;;;;;;;4946796;28;20157;-65
2022/05/15 08:34:15;;;;;;;18.15;7.43;;;;;;;;;;4942773;28;20474;-66
2022/05/15 08:36:42;;;;;;;19.02;7.45;;;;;;;;;;4948691;28;20390;-67
2022/05/15 08:39:11;;;;;;;18.40;7.47;;;;;;;;;;4945309;28;20035;-67
2022/05/15 08:41:36;;;;;;;17.17;7.35;;;;;;;;;;4948559;28;20050;-67
2022/05/15 08:44:29;;;;;;;18.05;7.93;;;;;;;;;;4942720;28;20023;-66
2022/05/15 08:47:00;;;;;;;22.77;7.90;;;;;;;;;;4948385;28;20042;-66
2022/05/15 08:49:25;;;;;;;19.02;7.40;;;;;;;;;;4945109;28;20248;-66
2022/05/15 08:51:53;;;;;;;17.10;7.82;;;;;;;;;;4948558;28;20038;-68
2022/05/15 08:54:19;;;;;;;16.85;7.85;;;;;;;;;;4944910;28;20091;-67
2022/05/15 08:56:46;;;;;;;16.90;8.07;;;;;;;;;;4948097;28;20046;-66
2022/05/15 08:59:19;;;;;;;18.60;7.97;;;;;;;;;;4942841;28;20027;-66
2022/05/15 09:01:52;;;;;;;15.63;7.38;;;;;;;;;;4947376;28;20027;-65
2022/05/15 09:04:17;;;;;;;22.13;8.07;;;;;;;;;;4944276;28;20077;-67
2022/05/15 09:06:50;;;;;;;20.13;8.15;;;;;;;;;;4948613;28;20035;-66
2022/05/15 09:09:37;;;;;;;18.90;7.57;;;;;;;;;;4943731;28;20011;-65
2022/05/15 09:12:23;;;;;;;16.02;7.32;;;;;;;;;;4945721;28;20050;-66
2022/05/15 09:15:01;;;;;;;14.95;7.30;;;;;;;;;;4944767;29;20043;-65
2022/05/15 09:17:45;;;;;;;17.92;7.50;;;;;;;;;;4946911;28;20038;-67
2022/05/15 09:20:20;;;;;;;14.27;7.32;;;;;;;;;;4946083;28;20108;-65
2022/05/15 09:22:47;;;;;;;16.08;7.05;;;;;;;;;;4947715;28;20038;-66
2022/05/15 09:25:15;;;;;;;16.60;7.68;;;;;;;;;;4947172;28;20028;-66
2022/05/15 09:27:55;;;;;;;16.27;7.85;;;;;;;;;;4946132;28;20521;-67
2022/05/15 09:30:21;;;;;;;15.68;7.50;;;;;;;;;;4946158;28;20078;-66
2022/05/15 09:32:46;;;;;;;15.30;7.35;;;;;;;;;;4948494;28;20101;-68
2022/05/15 09:35:17;;;;;;;15.23;7.82;;;;;;;;;;4963418;28;20371;-66
2022/05/15 09:40:40;;;;;;;18.42;7.78;;;;;;;;;;4949732;29;20035;-66
2022/05/15 09:43:31;;;;;;;16.38;6.72;;;;;;;;;;4946221;28;20202;-66
2022/05/15 09:45:56;;;;;;;15.52;7.72;;;;;;;;;;4950742;28;20178;-66
2022/05/15 09:48:24;;;;;;;14.88;8.18;;;;;;;;;;4963768;28;20027;-66
2022/05/15 09:50:52;;;;;;;17.00;7.25;;;;;;;;;;4948654;28;20027;-65
2022/05/15 09:53:36;;;;;;;19.05;8.50;;;;;;;;;;4949548;28;20047;-66
2022/05/15 09:56:09;;;;;;;15.15;7.45;;;;;;;;;;4950744;28;20522;-66
2022/05/15 09:58:36;;;;;;;16.60;7.40;;;;;;;;;;4944817;28;20047;-66
2022/05/15 10:01:23;;;;;;;17.23;8.13;;;;;;;;;;4948555;28;20097;-65
2022/05/15 10:03:54;;;;;;;15.43;7.82;;;;;;;;;;4946110;28;20434;-66
2022/05/15 10:06:21;;;;;;;17.10;7.20;;;;;;;;;;4950244;28;20038;-66
2022/05/15 10:09:03;;;;;;;16.00;7.38;;;;;;;;;;4950657;28;20331;-67
2022/05/15 10:11:28;;;;;;;14.90;7.40;;;;;;;;;;4949406;28;20027;-66
2022/05/15 10:13:54;;;;;;;13.30;6.80;;;;;;;;;;4945833;28;20133;-66
2022/05/15 10:16:30;;;;;;;17.38;6.75;;;;;;;;;;4948756;28;20450;-66
2022/05/15 10:19:02;;;;;;;16.27;7.25;;;;;;;;;;4946291;28;20145;-65
2022/05/15 10:21:33;;;;;;;14.65;7.25;;;;;;;;;;4946670;28;20027;-66
2022/05/15 10:24:00;;;;;;;13.60;7.00;;;;;;;;;;4947793;28;20501;-65
2022/05/15 10:26:31;;;;;;;14.15;7.47;;;;;;;;;;4948136;28;20106;-66
2022/05/15 10:29:03;;;;;;;14.13;8.07;;;;;;;;;;4944528;28;20019;-66
2022/05/15 10:31:35;;;;;;;16.92;7.50;;;;;;;;;;4947664;28;20081;-66
2022/05/15 10:34:01;;;;;;;12.83;7.10;;;;;;;;;;4944915;28;20237;-65
2022/05/15 10:36:37;;;;;;;15.82;7.65;;;;;;;;;;4948207;28;20827;-66
2022/05/15 10:39:21;;;;;;;13.95;6.32;;;;;;;;;;4948442;28;20122;-65
2022/05/15 10:41:49;;;;;;;18.55;7.90;;;;;;;;;;4948769;28;20077;-65
2022/05/15 10:44:23;;;;;;;13.90;6.18;;;;;;;;;;4943014;28;20027;-66
2022/05/15 10:46:52;;;;;;;16.13;7.40;;;;;;;;;;4948137;28;20015;-66
2022/05/15 10:49:17;;;;;;;16.08;7.43;;;;;;;;;;4944950;28;20039;-66
2022/05/15 10:51:49;;;;;;;15.00;7.47;;;;;;;;;;4942560;28;20027;-66
2022/05/15 10:57:24;;;;;;;12.93;6.00;;;;;;;;;;4949327;29;20034;-67
2022/05/15 10:59:53;;;;;;;13.07;5.82;;;;;;;;;;4945042;28;20035;-65
2022/05/15 11:02:21;;;;;;;53.33;8.48;;;;;;;;;;4947055;28;20034;-66
2022/05/15 11:04:46;;;;;;;16.63;6.70;;;;;;;;;;4945768;28;20039;-65
2022/05/15 11:07:29;;;;;;;124.13;15.32;;;;;;;;;;4947212;28;20063;-66
2022/05/15 11:09:54;;;;;;;;;;;;;;;;;;4949250;28;20469;-66
2022/05/15 11:12:27;;;;;;;24.10;6.20;;;;;;;;;;4948141;28;20361;-65
2022/05/15 11:14:52;;;;;;;14.82;5.85;;;;;;;;;;4946093;28;20487;-65
2022/05/15 11:17:31;;;;;;;18.50;6.57;;;;;;;;;;4947937;28;20071;-64
2022/05/15 11:20:01;;;;;;;59.10;8.05;;;;;;;;;;4946102;28;20102;-66
2022/05/15 11:22:41;;;;;;;13.43;5.78;;;;;;;;;;4943361;28;20031;-65
2022/05/15 11:25:09;;;;;;;12.48;5.35;;;;;;;;;;4949142;28;20031;-66
2022/05/15 11:27:40;;;;;;;11.65;4.80;;;;;;;;;;4947024;28;20026;-65
2022/05/15 11:30:11;;;;;;;9.98;5.25;;;;;;;;;;4947166;28;20027;-64
2022/05/15 11:32:46;;;;;;;13.45;5.32;;;;;;;;;;4944403;28;20437;-65
2022/05/15 11:35:17;;;;;;;12.50;4.65;;;;;;;;;;4945041;28;20015;-66
2022/05/15 11:37:57;;;;;;;16.67;4.93;;;;;;;;;;4944305;28;20023;-65
2022/05/15 11:40:42;;;;;;;10.20;4.30;;;;;;;;;;4946319;28;20024;-66
2022/05/15 11:43:27;;;;;;;7.80;4.28;;;;;;;;;;4946614;28;20027;-65
2022/05/15 11:45:53;;;;;;;13.13;5.00;;;;;;;;;;4945953;28;20023;-65
2022/05/15 11:48:32;;;;;;;15.02;5.20;;;;;;;;;;4947118;28;20480;-65
2022/05/15 11:51:04;;;;;;;13.40;4.90;;;;;;;;;;4941392;29;20027;-65
2022/05/15 11:53:36;;;;;;;12.80;4.85;;;;;;;;;;4942240;28;20508;-64
2022/05/15 11:56:19;;;;;;;9.37;4.10;;;;;;;;;;4947382;28;20121;-65
2022/05/15 11:58:51;;;;;;;9.85;4.20;;;;;;;;;;4942676;28;20348;-64
2022/05/15 12:01:39;;;;;;;7.97;3.92;;;;;;;;;;4946348;28;20234;-65
2022/05/15 12:04:24;;;;;;;8.00;3.65;;;;;;;;;;4943139;29;20042;-66
2022/05/15 12:07:12;;;;;;;9.43;3.75;;;;;;;;;;4925258;29;20061;-66
2022/05/15 12:09:41;;;;;;;10.43;4.13;;;;;;;;;;4942417;28;20033;-64
2022/05/15 12:12:27;;;;;;;10.20;4.28;;;;;;;;;;4945930;28;20457;-64
2022/05/15 12:15:08;;;;;;;10.13;4.07;;;;;;;;;;4943263;28;20031;-65
2022/05/15 12:17:35;;;;;;;9.02;3.78;;;;;;;;;;4945773;28;20118;-67
2022/05/15 12:20:15;;;;;;;7.55;3.50;;;;;;;;;;4943831;28;20031;-65
2022/05/15 12:22:47;;;;;;;8.93;3.78;;;;;;;;;;4943112;28;20023;-65
2022/05/15 12:25:14;;;;;;;9.23;3.40;;;;;;;;;;4947866;28;20019;-66
2022/05/15 12:28:50;;;;;;;7.97;3.30;;;;;;;;;;4944716;28;20687;-66
2022/05/15 12:30:46;;;;;;;9.52;3.55;;;;;;;;;;4945490;28;20276;-66
2022/05/15 12:33:11;;;;;;;9.40;3.60;;;;;;;;;;4946514;28;20027;-66
2022/05/15 12:35:38;;;;;;;11.35;4.22;;;;;;;;;;4942077;28;20019;-66
2022/05/15 12:38:03;;;;;;;9.02;3.38;;;;;;;;;;4945197;28;20106;-66
2022/05/15 12:40:31;;;;;;;8.35;3.00;;;;;;;;;;4946409;28;20502;-67
2022/05/15 12:42:57;;;;;;;6.80;2.88;;;;;;;;;;4948225;28;20031;-66
2022/05/15 12:45:23;;;;;;;11.43;3.28;;;;;;;;;;4944275;28;20027;-66
2022/05/15 12:47:59;;;;;;;10.05;3.53;;;;;;;;;;4946560;28;20287;-66
2022/05/15 12:50:24;;;;;;;6.18;3.35;;;;;;;;;;4944004;28;20027;-65
2022/05/15 12:52:53;;;;;;;9.38;3.33;;;;;;;;;;4956113;28;20348;-66
2022/05/15 12:55:26;;;;;;;5.80;3.25;;;;;;;;;;4947411;28;20422;-65
2022/05/15 12:57:53;;;;;;;8.82;2.88;;;;;;;;;;4942604;29;20039;-65
2022/05/15 13:00:21;;;;;;;9.45;3.33;;;;;;;;;;4944167;28;20030;-66
2022/05/15 13:02:47;;;;;;;6.78;2.85;;;;;;;;;;4945666;28;20023;-66
2022/05/15 13:05:27;;;;;;;7.82;2.60;;;;;;;;;;4944865;28;20023;-66
2022/05/15 13:07:53;;;;;;;8.57;2.92;;;;;;;;;;4952577;28;20051;-65
2022/05/15 13:10:20;;;;;;;6.43;2.78;;;;;;;;;;4952062;28;20030;-65
2022/05/15 13:12:49;;;;;;;9.93;3.40;;;;;;;;;;4947269;29;20031;-66
2022/05/15 13:15:18;;;;;;;8.30;3.20;;;;;;;;;;4950145;28;20027;-64
2022/05/15 13:17:43;;;;;;;6.70;2.90;;;;;;;;;;4950253;28;20027;-67
2022/05/15 13:20:12;;;;;;;7.95;2.85;;;;;;;;;;4947882;28;20694;-66
2022/05/15 13:22:38;;;;;;;9.93;2.92;;;;;;;;;;4947420;28;20070;-66
2022/05/15 13:25:09;;;;;;;7.63;3.35;;;;;;;;;;4950978;28;20394;-66
2022/05/15 13:27:36;;;;;;;7.05;2.60;;;;;;;;;;4949015;28;20365;-65
2022/05/15 13:30:01;;;;;;;9.02;2.97;;;;;;;;;;4948223;28;20023;-66
2022/05/15 13:32:26;;;;;;;7.95;3.05;;;;;;;;;;4950977;28;20469;-66
2022/05/15 13:34:52;;;;;;;9.65;3.15;;;;;;;;;;4946745;28;20460;-66
2022/05/15 13:37:29;;;;;;;8.93;3.10;;;;;;;;;;4947927;28;20110;-66
2022/05/15 13:45:25;;;;;;;5.22;2.90;;;;;;;;;;4949517;29;20075;-66
2022/05/15 13:48:07;;;;;;;7.03;2.72;;;;;;;;;;4949043;28;20410;-65
2022/05/15 13:50:36;;;;;;;9.20;2.83;;;;;;;;;;4948445;28;20086;-66
2022/05/15 13:53:18;;;;;;;6.85;2.90;;;;;;;;;;4947312;28;20035;-66
2022/05/15 13:55:47;;;;;;;7.63;2.97;;;;;;;;;;4949172;28;20146;-66
2022/05/15 13:58:12;;;;;;;10.13;3.20;;;;;;;;;;4951414;28;20038;-65
2022/05/15 14:00:40;;;;;;;6.80;2.80;;;;;;;;;;4943362;28;20031;-65
2022/05/15 14:03:09;;;;;;;6.47;2.88;;;;;;;;;;4950471;28;20058;-66
2022/05/15 14:05:41;;;;;;;7.05;2.60;;;;;;;;;;4948574;28;20054;-67
2022/05/15 14:08:17;;;;;;;6.30;2.75;;;;;;;;;;4949007;28;20019;-66
2022/05/15 14:10:43;;;;;;;5.50;2.53;;;;;;;;;;4949443;28;20027;-66
2022/05/15 14:13:09;;;;;;;6.50;2.50;;;;;;;;;;4950387;28;20030;-66
2022/05/15 14:15:44;;;;;;;9.05;2.67;;;;;;;;;;4947317;28;20541;-66
2022/05/15 14:18:11;;;;;;;6.18;2.42;;;;;;;;;;4949476;28;20043;-67
2022/05/15 14:20:41;;;;;;;6.20;2.50;;;;;;;;;;4947314;28;20027;-66
2022/05/15 14:23:07;;;;;;;5.55;2.70;;;;;;;;;;4948312;28;20050;-66
2022/05/15 14:25:33;;;;;;;5.80;2.03;;;;;;;;;;4950607;28;20495;-66
2022/05/15 14:27:59;;;;;;;5.53;2.35;;;;;;;;;;4948202;28;20452;-66
2022/05/15 14:30:24;;;;;;;5.53;2.60;;;;;;;;;;4947484;28;20117;-65
2022/05/15 14:32:55;;;;;;;6.30;2.50;;;;;;;;;;4948049;28;20282;-65
2022/05/15 14:35:22;;;;;;;5.55;2.60;;;;;;;;;;4946837;28;20031;-66
2022/05/15 14:37:47;;;;;;;6.32;2.70;;;;;;;;;;4945631;28;20019;-66
2022/05/15 14:40:12;;;;;;;5.65;2.38;;;;;;;;;;4949594;28;20035;-66
2022/05/15 14:42:43;;;;;;;6.55;2.20;;;;;;;;;;4948796;28;20106;-65
2022/05/15 14:45:11;;;;;;;6.95;2.40;;;;;;;;;;4947671;28;20031;-66
2022/05/15 14:47:36;;;;;;;5.47;2.47;;;;;;;;;;4950349;28;20150;-66
2022/05/15 14:50:04;;;;;;;4.35;2.17;;;;;;;;;;4945698;28;20110;-67
2022/05/15 14:52:31;;;;;;;8.63;2.42;;;;;;;;;;4946102;28;20872;-67
2022/05/15 14:54:56;;;;;;;4.97;2.42;;;;;;;;;;4948382;28;20278;-67
2022/05/15 14:57:25;;;;;;;6.32;2.25;;;;;;;;;;4948023;28;20046;-67
2022/05/15 14:59:52;;;;;;;5.28;2.72;;;;;;;;;;4943054;28;20390;-68
2022/05/15 15:02:18;;;;;;;8.48;2.28;;;;;;;;;;4948846;28;20059;-67
2022/05/15 15:04:46;;;;;;;6.50;2.38;;;;;;;;;;4942795;28;20063;-66